| Date | Temp | Humidity | Rainfall | Dew Point | Wind Direction | Wind Speed | Wind Pressure | Condition | Visibility |
|---|---|---|---|---|---|---|---|---|---|
| 2025-04-12 11:59:32 | 32 | 63 | 0 | 24 | 210 | 17.1 | 1010 | Partly Cloudy (Day) | 20 KM |
| 2025-04-12 10:59:36 | 31 | 67 | 0 | 24 | 200 | 13.3 | 1011 | Partly Cloudy (Day) | 20 KM |
| 2025-04-12 10:15:42 | 29 | 74 | 24 | 200 | 13.3 | 1011 | Partly Cloudy (Day) | 20KM | |
| 2025-04-12 08:57:52 | 28 | 24 | 190 | 9.5 | 1012 | Partly Cloudy (Day) | 20KM | ||
| 2025-04-12 07:59:13 | 26 | 90 | 0.00 | 24 | 200 | 7.6 | 1011 | Partly Cloudy (Day) | 15 km |
| 2025-04-12 06:58:11 | 25 | 91 | 0.00 | 24 | 180 | 5.7 | 1011 | Partly Cloudy (Day) | 15 km |
| 2025-04-12 05:59:40 | 25 | 93 | 0.0 | 24 | 220 | 1.9 | 1010 | Partly Cloudy (Day) | 10 km |
| 2025-04-12 05:00:11 | 25 | 93 | 0.00 | 24 | 190 | 5.7 | 1009 | Partly Cloudy (Night) | 10 km |
| 2025-04-12 04:02:15 | 25 | 92 | 0.00 | 23 | 240 | 5.7 | 1009 | Partly Cloudy (Night) | 10 km |
| 2025-04-12 03:01:33 | 25 | 93 | 0.0 | 24 | 170 | 7.6 | 1008 | Partly Cloudy (Night) | 10 km |
| 2025-04-12 02:00:26 | 25 | 92 | 24 | 160 | 5.7 | 1009 | Partly Cloudy (Night) | 10KM | |
| 2025-04-12 01:03:11 | 26 | 88 | 23 | 180 | 5.7 | 1010 | Partly Cloudy (Night) | 10KM | |
| 2025-04-11 23:58:27 | 25 | 88 | 23 | 110 | 3.8 | 1011 | Partly Cloudy (Night) | 10KM | |
| 2025-04-11 23:01:32 | 25 | 88 | 23 | 170 | 7.6 | 1011 | Showers | 10KM | |
| 2025-04-11 21:59:03 | 26 | 88 | 24 | 150 | 7.6 | 1011 | Lightning | 10KM | |
| 2025-04-11 20:59:25 | 27 | 83 | 0.0 | 24 | 100 | 6 | 1011 | Night Thunderstorm | 10 km |
| 2025-04-11 20:03:07 | 29 | 79 | 0.0 | 25 | 060 | 6 | 1009 | Night Thunderstorm | 10 km |
| 2025-04-11 18:59:46 | 29 | 75 | 0.0 | 24 | 320 | 10 | 1008 | Night Thunderstorm | 10 km |
| 2025-04-11 18:59:10 | 29 | 75 | 0.0 | 24 | 320 | 10 | 1008 | Lightning | 10 km |
| 2025-04-11 17:59:09 | 30 | 72 | 0.0 | 24 | 310 | 10 | 1007 | Distant showers | 10 km |
| 2025-04-11 17:02:08 | 31 | 68 | 24 | 290 | 15.2 | 1007 | Distant showers | 15KM | |
| 2025-04-11 16:00:50 | 31 | 72 | 25 | 280 | 15.2 | 1006 | Shower Day | 10KM | |
| 2025-04-11 15:00:43 | 32 | 67 | 25 | 200 | 19.0 | 1007 | Distant showers | 10KM | |
| 2025-04-11 14:01:23 | 33 | 61 | 24 | 200 | 9.5 | 1007 | Partly Cloudy (Day) | 20 | |
| 2025-04-11 13:01:33 | 32 | 62 | 24 | 190 | 9.5 | 1008 | Partly Cloudy (Day) | 20KM |